sensor_id;sensor_type;location;lat;lon;timestamp;noise_LAeq;noise_LA_min;noise_LA_max;noise_LA01;noise_LA95
66463;Laerm;56827;52.178;4.500;2023-11-19T00:00:10;48.73;45.95;51.49;;
66463;Laerm;56827;52.178;4.500;2023-11-19T00:00:23;52.99;48.31;55.24;;
66463;Laerm;56827;52.178;4.500;2023-11-19T00:00:33;50.68;46.54;53.58;;
66463;Laerm;56827;52.178;4.500;2023-11-19T00:00:43;47.67;41.24;52.58;;
66463;Laerm;56827;52.178;4.500;2023-11-19T00:00:54;42.97;41.52;45.16;;
66463;Laerm;56827;52.178;4.500;2023-11-19T00:01:04;44.11;42.26;50.22;;
66463;Laerm;56827;52.178;4.500;2023-11-19T00:01:15;44.99;43.05;46.86;;
66463;Laerm;56827;52.178;4.500;2023-11-19T00:01:26;45.83;42.70;48.48;;
66463;Laerm;56827;52.178;4.500;2023-11-19T00:01:36;45.93;42.25;49.10;;
66463;Laerm;56827;52.178;4.500;2023-11-19T00:01:46;43.34;41.24;46.07;;
66463;Laerm;56827;52.178;4.500;2023-11-19T00:01:57;50.52;44.15;54.69;;
66463;Laerm;56827;52.178;4.500;2023-11-19T00:02:07;52.78;50.80;55.14;;
66463;Laerm;56827;52.178;4.500;2023-11-19T00:02:18;49.00;46.05;52.79;;
66463;Laerm;56827;52.178;4.500;2023-11-19T00:02:28;48.63;44.80;52.88;;
66463;Laerm;56827;52.178;4.500;2023-11-19T00:02:38;47.70;44.34;51.09;;
66463;Laerm;56827;52.178;4.500;2023-11-19T00:02:49;49.93;45.89;53.09;;
66463;Laerm;56827;52.178;4.500;2023-11-19T00:02:59;44.58;40.96;47.66;;
66463;Laerm;56827;52.178;4.500;2023-11-19T00:03:09;46.74;40.32;50.28;;
66463;Laerm;56827;52.178;4.500;2023-11-19T00:03:20;49.40;44.50;53.18;;
66463;Laerm;56827;52.178;4.500;2023-11-19T00:03:31;47.60;43.38;50.82;;
66463;Laerm;56827;52.178;4.500;2023-11-19T00:03:41;44.11;41.02;48.49;;
66463;Laerm;56827;52.178;4.500;2023-11-19T00:03:51;53.52;47.18;56.65;;
66463;Laerm;56827;52.178;4.500;2023-11-19T00:04:01;44.47;41.92;48.05;;
66463;Laerm;56827;52.178;4.500;2023-11-19T00:04:14;44.49;41.83;46.58;;
66463;Laerm;56827;52.178;4.500;2023-11-19T00:04:25;47.79;43.80;51.59;;
66463;Laerm;56827;52.178;4.500;2023-11-19T00:04:38;48.31;43.17;52.67;;
66463;Laerm;56827;52.178;4.500;2023-11-19T00:04:51;47.20;41.91;51.16;;
66463;Laerm;56827;52.178;4.500;2023-11-19T00:05:03;47.67;44.63;50.38;;
66463;Laerm;56827;52.178;4.500;2023-11-19T00:05:14;50.45;45.03;57.97;;
66463;Laerm;56827;52.178;4.500;2023-11-19T00:05:24;54.23;52.00;57.03;;
66463;Laerm;56827;52.178;4.500;2023-11-19T00:05:34;47.01;42.63;52.73;;
66463;Laerm;56827;52.178;4.500;2023-11-19T00:05:44;45.52;43.97;46.99;;
66463;Laerm;56827;52.178;4.500;2023-11-19T00:05:55;45.75;43.15;48.82;;
66463;Laerm;56827;52.178;4.500;2023-11-19T00:06:05;47.39;43.52;50.18;;
66463;Laerm;56827;52.178;4.500;2023-11-19T00:06:16;44.34;42.47;46.57;;
66463;Laerm;56827;52.178;4.500;2023-11-19T00:06:26;47.92;43.17;50.40;;
66463;Laerm;56827;52.178;4.500;2023-11-19T00:06:37;47.48;43.53;50.49;;
66463;Laerm;56827;52.178;4.500;2023-11-19T00:06:48;50.38;42.76;54.65;;
66463;Laerm;56827;52.178;4.500;2023-11-19T00:06:58;54.69;50.67;57.90;;
66463;Laerm;56827;52.178;4.500;2023-11-19T00:07:13;47.09;42.22;52.03;;
66463;Laerm;56827;52.178;4.500;2023-11-19T00:07:24;53.87;44.12;60.32;;
66463;Laerm;56827;52.178;4.500;2023-11-19T00:07:35;58.71;54.67;62.76;;
66463;Laerm;56827;52.178;4.500;2023-11-19T00:07:45;55.65;51.37;57.93;;
66463;Laerm;56827;52.178;4.500;2023-11-19T00:07:56;51.00;48.34;54.54;;
66463;Laerm;56827;52.178;4.500;2023-11-19T00:08:06;54.55;48.92;64.19;;
66463;Laerm;56827;52.178;4.500;2023-11-19T00:08:16;46.18;42.95;50.62;;
66463;Laerm;56827;52.178;4.500;2023-11-19T00:08:26;47.91;44.79;51.71;;
66463;Laerm;56827;52.178;4.500;2023-11-19T00:08:37;47.20;44.20;49.48;;
66463;Laerm;56827;52.178;4.500;2023-11-19T00:08:47;48.59;47.08;51.06;;
66463;Laerm;56827;52.178;4.500;2023-11-19T00:08:58;47.77;44.62;51.53;;
66463;Laerm;56827;52.178;4.500;2023-11-19T00:09:08;43.94;41.37;47.34;;
66463;Laerm;56827;52.178;4.500;2023-11-19T00:09:18;42.81;40.54;54.97;;
66463;Laerm;56827;52.178;4.500;2023-11-19T00:09:28;40.05;38.13;42.25;;
66463;Laerm;56827;52.178;4.500;2023-11-19T00:09:39;40.08;38.06;41.81;;
66463;Laerm;56827;52.178;4.500;2023-11-19T00:09:49;46.39;39.69;51.02;;
66463;Laerm;56827;52.178;4.500;2023-11-19T00:10:00;42.28;39.74;44.71;;
66463;Laerm;56827;52.178;4.500;2023-11-19T00:10:19;51.31;44.00;59.77;;
66463;Laerm;56827;52.178;4.500;2023-11-19T00:10:30;52.54;48.98;58.90;;
66463;Laerm;56827;52.178;4.500;2023-11-19T00:10:41;51.06;48.21;55.81;;
66463;Laerm;56827;52.178;4.500;2023-11-19T00:10:51;48.72;45.50;53.39;;
66463;Laerm;56827;52.178;4.500;2023-11-19T00:11:01;48.89;42.38;54.01;;
66463;Laerm;56827;52.178;4.500;2023-11-19T00:11:11;42.87;40.65;44.84;;
66463;Laerm;56827;52.178;4.500;2023-11-19T00:11:25;45.42;41.61;48.81;;
66463;Laerm;56827;52.178;4.500;2023-11-19T00:11:35;48.38;44.14;51.99;;
66463;Laerm;56827;52.178;4.500;2023-11-19T00:11:46;44.41;41.41;48.57;;
66463;Laerm;56827;52.178;4.500;2023-11-19T00:11:57;45.45;41.59;49.40;;
66463;Laerm;56827;52.178;4.500;2023-11-19T00:12:07;44.26;41.98;47.12;;
66463;Laerm;56827;52.178;4.500;2023-11-19T00:12:18;44.67;42.45;48.29;;
66463;Laerm;56827;52.178;4.500;2023-11-19T00:12:28;48.65;45.63;51.16;;
66463;Laerm;56827;52.178;4.500;2023-11-19T00:12:40;46.60;43.20;50.54;;
66463;Laerm;56827;52.178;4.500;2023-11-19T00:12:51;43.96;40.62;47.80;;
66463;Laerm;56827;52.178;4.500;2023-11-19T00:13:01;45.42;41.08;50.27;;
66463;Laerm;56827;52.178;4.500;2023-11-19T00:13:12;54.26;49.03;58.19;;
66463;Laerm;56827;52.178;4.500;2023-11-19T00:13:23;52.29;44.89;56.31;;
66463;Laerm;56827;52.178;4.500;2023-11-19T00:13:33;48.14;43.44;54.66;;
66463;Laerm;56827;52.178;4.500;2023-11-19T00:13:43;55.13;50.24;58.05;;
66463;Laerm;56827;52.178;4.500;2023-11-19T00:13:53;51.25;46.69;55.09;;
66463;Laerm;56827;52.178;4.500;2023-11-19T00:14:04;48.20;45.69;50.73;;
66463;Laerm;56827;52.178;4.500;2023-11-19T00:14:14;50.30;46.22;53.20;;
66463;Laerm;56827;52.178;4.500;2023-11-19T00:14:24;48.53;46.22;51.70;;
66463;Laerm;56827;52.178;4.500;2023-11-19T00:14:35;47.21;44.00;50.00;;
66463;Laerm;56827;52.178;4.500;2023-11-19T00:14:45;50.09;45.04;52.09;;
66463;Laerm;56827;52.178;4.500;2023-11-19T00:14:56;44.90;42.21;48.04;;
66463;Laerm;56827;52.178;4.500;2023-11-19T00:15:07;43.18;40.95;45.53;;
66463;Laerm;56827;52.178;4.500;2023-11-19T00:15:21;53.92;42.52;59.57;;
66463;Laerm;56827;52.178;4.500;2023-11-19T00:15:31;52.40;50.27;56.47;;
66463;Laerm;56827;52.178;4.500;2023-11-19T00:15:41;48.57;45.96;52.00;;
66463;Laerm;56827;52.178;4.500;2023-11-19T00:15:52;57.04;50.88;63.98;;
66463;Laerm;56827;52.178;4.500;2023-11-19T00:16:03;59.24;56.12;62.15;;
66463;Laerm;56827;52.178;4.500;2023-11-19T00:16:14;60.83;55.65;64.37;;
66463;Laerm;56827;52.178;4.500;2023-11-19T00:16:24;57.43;53.03;60.16;;
66463;Laerm;56827;52.178;4.500;2023-11-19T00:16:34;51.24;45.35;54.65;;
66463;Laerm;56827;52.178;4.500;2023-11-19T00:16:45;47.96;43.82;52.52;;
66463;Laerm;56827;52.178;4.500;2023-11-19T00:16:55;56.20;50.61;58.56;;
66463;Laerm;56827;52.178;4.500;2023-11-19T00:17:05;55.48;52.28;57.79;;
66463;Laerm;56827;52.178;4.500;2023-11-19T00:17:15;52.93;50.27;55.57;;
66463;Laerm;56827;52.178;4.500;2023-11-19T00:17:26;52.54;49.93;55.75;;
66463;Laerm;56827;52.178;4.500;2023-11-19T00:17:40;51.52;47.44;54.08;;
66463;Laerm;56827;52.178;4.500;2023-11-19T00:17:52;53.60;47.65;58.09;;
66463;Laerm;56827;52.178;4.500;2023-11-19T00:18:02;54.05;47.00;57.81;;
66463;Laerm;56827;52.178;4.500;2023-11-19T00:18:14;52.59;48.51;61.39;;
66463;Laerm;56827;52.178;4.500;2023-11-19T00:18:24;49.73;47.56;55.41;;
66463;Laerm;56827;52.178;4.500;2023-11-19T00:18:35;52.52;48.27;55.55;;
66463;Laerm;56827;52.178;4.500;2023-11-19T00:18:46;51.92;46.73;56.01;;
66463;Laerm;56827;52.178;4.500;2023-11-19T00:18:56;52.65;47.27;56.59;;
66463;Laerm;56827;52.178;4.500;2023-11-19T00:19:06;49.13;46.29;50.92;;
66463;Laerm;56827;52.178;4.500;2023-11-19T00:19:18;48.01;44.02;50.95;;
66463;Laerm;56827;52.178;4.500;2023-11-19T00:19:28;45.71;42.12;48.39;;
66463;Laerm;56827;52.178;4.500;2023-11-19T00:19:39;44.95;41.76;47.61;;
66463;Laerm;56827;52.178;4.500;2023-11-19T00:19:49;55.92;47.39;58.51;;
66463;Laerm;56827;52.178;4.500;2023-11-19T00:20:01;55.75;51.24;57.99;;
66463;Laerm;56827;52.178;4.500;2023-11-19T00:20:16;49.34;46.60;52.43;;
66463;Laerm;56827;52.178;4.500;2023-11-19T00:20:26;47.95;45.11;51.31;;
66463;Laerm;56827;52.178;4.500;2023-11-19T00:20:36;45.25;42.84;50.07;;
66463;Laerm;56827;52.178;4.500;2023-11-19T00:20:46;48.46;44.47;56.32;;
66463;Laerm;56827;52.178;4.500;2023-11-19T00:20:57;47.96;44.79;50.36;;
66463;Laerm;56827;52.178;4.500;2023-11-19T00:21:07;47.72;43.67;51.56;;
66463;Laerm;56827;52.178;4.500;2023-11-19T00:21:18;54.16;51.04;58.08;;
66463;Laerm;56827;52.178;4.500;2023-11-19T00:21:28;50.24;48.15;53.46;;
66463;Laerm;56827;52.178;4.500;2023-11-19T00:21:38;51.51;45.41;56.79;;
66463;Laerm;56827;52.178;4.500;2023-11-19T00:21:49;53.34;50.51;56.39;;
66463;Laerm;56827;52.178;4.500;2023-11-19T00:22:00;54.76;49.85;56.72;;
66463;Laerm;56827;52.178;4.500;2023-11-19T00:22:12;51.68;48.93;54.13;;
66463;Laerm;56827;52.178;4.500;2023-11-19T00:22:23;50.07;46.60;52.82;;
66463;Laerm;56827;52.178;4.500;2023-11-19T00:22:33;52.56;46.94;57.92;;
66463;Laerm;56827;52.178;4.500;2023-11-19T00:22:43;61.27;57.18;64.97;;
66463;Laerm;56827;52.178;4.500;2023-11-19T00:22:54;55.98;49.80;59.45;;
66463;Laerm;56827;52.178;4.500;2023-11-19T00:23:04;51.62;49.77;53.88;;
66463;Laerm;56827;52.178;4.500;2023-11-19T00:23:14;49.54;47.29;51.89;;
66463;Laerm;56827;52.178;4.500;2023-11-19T00:23:24;50.33;46.46;53.30;;
66463;Laerm;56827;52.178;4.500;2023-11-19T00:23:35;51.02;45.61;55.52;;
66463;Laerm;56827;52.178;4.500;2023-11-19T00:23:45;59.76;53.88;64.29;;
66463;Laerm;56827;52.178;4.500;2023-11-19T00:23:55;59.22;54.34;63.94;;
66463;Laerm;56827;52.178;4.500;2023-11-19T00:24:08;54.87;48.56;58.51;;
66463;Laerm;56827;52.178;4.500;2023-11-19T00:24:18;53.26;49.06;56.75;;
66463;Laerm;56827;52.178;4.500;2023-11-19T00:24:28;55.81;52.76;58.14;;
66463;Laerm;56827;52.178;4.500;2023-11-19T00:24:39;51.44;44.56;56.03;;
66463;Laerm;56827;52.178;4.500;2023-11-19T00:24:49;49.80;45.45;52.70;;
66463;Laerm;56827;52.178;4.500;2023-11-19T00:24:59;51.87;49.43;53.48;;
66463;Laerm;56827;52.178;4.500;2023-11-19T00:25:10;50.69;47.92;55.14;;
66463;Laerm;56827;52.178;4.500;2023-11-19T00:25:20;54.06;48.28;56.87;;
66463;Laerm;56827;52.178;4.500;2023-11-19T00:25:31;48.71;45.72;53.06;;
66463;Laerm;56827;52.178;4.500;2023-11-19T00:25:41;47.19;44.28;52.41;;
66463;Laerm;56827;52.178;4.500;2023-11-19T00:25:52;48.52;43.58;52.09;;
66463;Laerm;56827;52.178;4.500;2023-11-19T00:26:02;45.48;42.19;49.46;;
66463;Laerm;56827;52.178;4.500;2023-11-19T00:26:12;58.85;47.69;63.23;;
66463;Laerm;56827;52.178;4.500;2023-11-19T00:26:24;55.23;49.84;58.54;;
66463;Laerm;56827;52.178;4.500;2023-11-19T00:26:35;51.39;46.14;55.02;;
66463;Laerm;56827;52.178;4.500;2023-11-19T00:26:45;53.58;48.80;58.82;;
66463;Laerm;56827;52.178;4.500;2023-11-19T00:26:55;61.69;54.30;64.23;;
66463;Laerm;56827;52.178;4.500;2023-11-19T00:27:06;54.43;48.34;61.80;;
66463;Laerm;56827;52.178;4.500;2023-11-19T00:27:17;51.18;47.07;53.88;;
66463;Laerm;56827;52.178;4.500;2023-11-19T00:27:28;51.96;48.34;56.42;;
66463;Laerm;56827;52.178;4.500;2023-11-19T00:27:38;57.17;52.08;60.56;;
66463;Laerm;56827;52.178;4.500;2023-11-19T00:27:48;55.15;49.70;60.32;;
66463;Laerm;56827;52.178;4.500;2023-11-19T00:27:58;51.42;49.02;54.19;;
66463;Laerm;56827;52.178;4.500;2023-11-19T00:28:09;49.84;47.75;52.71;;
66463;Laerm;56827;52.178;4.500;2023-11-19T00:28:19;47.86;45.40;51.11;;
66463;Laerm;56827;52.178;4.500;2023-11-19T00:28:30;45.32;43.37;48.69;;
66463;Laerm;56827;52.178;4.500;2023-11-19T00:28:40;44.27;42.44;46.38;;
66463;Laerm;56827;52.178;4.500;2023-11-19T00:28:50;46.57;43.97;49.28;;
66463;Laerm;56827;52.178;4.500;2023-11-19T00:29:02;48.87;45.33;52.58;;
66463;Laerm;56827;52.178;4.500;2023-11-19T00:29:13;51.22;47.15;53.70;;
66463;Laerm;56827;52.178;4.500;2023-11-19T00:29:24;50.61;45.63;55.07;;
66463;Laerm;56827;52.178;4.500;2023-11-19T00:29:34;45.82;43.59;49.76;;
66463;Laerm;56827;52.178;4.500;2023-11-19T00:29:45;50.22;44.52;54.87;;
66463;Laerm;56827;52.178;4.500;2023-11-19T00:29:56;44.44;42.38;46.53;;
66463;Laerm;56827;52.178;4.500;2023-11-19T00:30:06;44.78;41.80;48.83;;
66463;Laerm;56827;52.178;4.500;2023-11-19T00:30:18;43.81;41.46;47.97;;
66463;Laerm;56827;52.178;4.500;2023-11-19T00:30:28;42.75;40.18;44.72;;
66463;Laerm;56827;52.178;4.500;2023-11-19T00:30:38;44.03;38.86;49.86;;
66463;Laerm;56827;52.178;4.500;2023-11-19T00:30:50;48.21;43.12;52.16;;
66463;Laerm;56827;52.178;4.500;2023-11-19T00:31:01;50.88;44.31;55.00;;
66463;Laerm;56827;52.178;4.500;2023-11-19T00:31:11;56.41;50.83;61.27;;
66463;Laerm;56827;52.178;4.500;2023-11-19T00:31:22;57.87;53.45;61.16;;
66463;Laerm;56827;52.178;4.500;2023-11-19T00:31:32;56.05;53.38;58.25;;
66463;Laerm;56827;52.178;4.500;2023-11-19T00:31:42;49.41;45.65;53.64;;
66463;Laerm;56827;52.178;4.500;2023-11-19T00:31:53;47.29;43.61;50.41;;
66463;Laerm;56827;52.178;4.500;2023-11-19T00:32:03;47.18;42.90;51.31;;
66463;Laerm;56827;52.178;4.500;2023-11-19T00:32:15;42.23;40.33;44.94;;
66463;Laerm;56827;52.178;4.500;2023-11-19T00:32:25;42.20;38.78;44.77;;
66463;Laerm;56827;52.178;4.500;2023-11-19T00:32:35;40.82;38.73;45.59;;
66463;Laerm;56827;52.178;4.500;2023-11-19T00:32:48;42.51;40.44;44.61;;
66463;Laerm;56827;52.178;4.500;2023-11-19T00:32:58;42.14;38.93;45.76;;
66463;Laerm;56827;52.178;4.500;2023-11-19T00:33:09;47.75;44.54;52.04;;
66463;Laerm;56827;52.178;4.500;2023-11-19T00:33:19;48.08;44.96;52.00;;
66463;Laerm;56827;52.178;4.500;2023-11-19T00:33:29;51.05;45.66;54.09;;
66463;Laerm;56827;52.178;4.500;2023-11-19T00:33:39;51.04;47.76;57.94;;
66463;Laerm;56827;52.178;4.500;2023-11-19T00:33:50;49.75;42.92;53.33;;
66463;Laerm;56827;52.178;4.500;2023-11-19T00:34:00;48.09;45.50;50.51;;
66463;Laerm;56827;52.178;4.500;2023-11-19T00:34:11;47.83;44.80;50.67;;
66463;Laerm;56827;52.178;4.500;2023-11-19T00:34:22;58.01;49.69;63.84;;
66463;Laerm;56827;52.178;4.500;2023-11-19T00:34:32;56.70;52.23;60.89;;
66463;Laerm;56827;52.178;4.500;2023-11-19T00:34:43;59.25;53.09;63.08;;
66463;Laerm;56827;52.178;4.500;2023-11-19T00:34:54;59.63;57.03;62.52;;
66463;Laerm;56827;52.178;4.500;2023-11-19T00:35:04;53.27;46.01;58.50;;
66463;Laerm;56827;52.178;4.500;2023-11-19T00:35:15;49.97;46.18;53.18;;
66463;Laerm;56827;52.178;4.500;2023-11-19T00:35:26;50.20;47.22;52.79;;
66463;Laerm;56827;52.178;4.500;2023-11-19T00:35:36;48.47;45.11;50.92;;
66463;Laerm;56827;52.178;4.500;2023-11-19T00:35:47;49.47;46.25;53.16;;
66463;Laerm;56827;52.178;4.500;2023-11-19T00:35:58;49.14;44.81;52.89;;
66463;Laerm;56827;52.178;4.500;2023-11-19T00:36:08;46.78;43.52;50.59;;
66463;Laerm;56827;52.178;4.500;2023-11-19T00:36:19;45.41;42.52;48.14;;
66463;Laerm;56827;52.178;4.500;2023-11-19T00:36:29;46.39;42.97;48.94;;
66463;Laerm;56827;52.178;4.500;2023-11-19T00:36:39;46.77;43.17;49.33;;
66463;Laerm;56827;52.178;4.500;2023-11-19T00:36:49;44.71;40.69;48.59;;
66463;Laerm;56827;52.178;4.500;2023-11-19T00:36:59;44.37;41.14;47.62;;
66463;Laerm;56827;52.178;4.500;2023-11-19T00:37:10;40.81;38.37;42.99;;
66463;Laerm;56827;52.178;4.500;2023-11-19T00:37:20;46.65;41.30;51.13;;
66463;Laerm;56827;52.178;4.500;2023-11-19T00:37:30;50.02;46.10;52.79;;
66463;Laerm;56827;52.178;4.500;2023-11-19T00:37:40;45.81;43.39;48.10;;
66463;Laerm;56827;52.178;4.500;2023-11-19T00:37:52;46.72;42.62;50.03;;
66463;Laerm;56827;52.178;4.500;2023-11-19T00:38:04;49.58;45.70;55.87;;
66463;Laerm;56827;52.178;4.500;2023-11-19T00:38:14;54.93;46.52;61.29;;
66463;Laerm;56827;52.178;4.500;2023-11-19T00:38:24;60.29;54.71;64.80;;
66463;Laerm;56827;52.178;4.500;2023-11-19T00:38:35;60.68;53.63;65.04;;
66463;Laerm;56827;52.178;4.500;2023-11-19T00:38:45;51.52;45.28;54.87;;
66463;Laerm;56827;52.178;4.500;2023-11-19T00:38:55;46.98;44.18;50.08;;
66463;Laerm;56827;52.178;4.500;2023-11-19T00:39:05;50.11;47.29;52.59;;
66463;Laerm;56827;52.178;4.500;2023-11-19T00:39:16;45.19;42.30;47.85;;
66463;Laerm;56827;52.178;4.500;2023-11-19T00:39:27;48.10;43.61;51.36;;
66463;Laerm;56827;52.178;4.500;2023-11-19T00:39:38;44.05;42.24;45.69;;
66463;Laerm;56827;52.178;4.500;2023-11-19T00:39:48;51.75;42.81;59.48;;
66463;Laerm;56827;52.178;4.500;2023-11-19T00:39:58;55.83;52.38;58.59;;
66463;Laerm;56827;52.178;4.500;2023-11-19T00:40:08;55.88;53.44;58.99;;
66463;Laerm;56827;52.178;4.500;2023-11-19T00:40:20;54.48;51.58;56.86;;
66463;Laerm;56827;52.178;4.500;2023-11-19T00:40:34;52.27;48.12;56.51;;
66463;Laerm;56827;52.178;4.500;2023-11-19T00:40:44;52.23;49.55;54.05;;
66463;Laerm;56827;52.178;4.500;2023-11-19T00:40:54;49.95;45.02;52.84;;
66463;Laerm;56827;52.178;4.500;2023-11-19T00:41:04;46.29;43.37;49.55;;
66463;Laerm;56827;52.178;4.500;2023-11-19T00:41:15;44.19;40.82;46.68;;
66463;Laerm;56827;52.178;4.500;2023-11-19T00:41:26;42.45;39.32;45.68;;
66463;Laerm;56827;52.178;4.500;2023-11-19T00:41:36;51.10;42.75;54.83;;
66463;Laerm;56827;52.178;4.500;2023-11-19T00:41:47;52.14;49.46;54.69;;
66463;Laerm;56827;52.178;4.500;2023-11-19T00:41:57;51.50;48.45;54.72;;
66463;Laerm;56827;52.178;4.500;2023-11-19T00:42:07;58.23;48.38;62.72;;
66463;Laerm;56827;52.178;4.500;2023-11-19T00:42:17;54.67;48.94;59.28;;
66463;Laerm;56827;52.178;4.500;2023-11-19T00:42:28;48.04;45.50;51.53;;
66463;Laerm;56827;52.178;4.500;2023-11-19T00:42:38;48.78;45.90;51.20;;
66463;Laerm;56827;52.178;4.500;2023-11-19T00:42:48;44.08;41.82;47.38;;
66463;Laerm;56827;52.178;4.500;2023-11-19T00:42:59;42.61;39.94;45.64;;
66463;Laerm;56827;52.178;4.500;2023-11-19T00:43:09;42.19;40.57;43.97;;
66463;Laerm;56827;52.178;4.500;2023-11-19T00:43:19;53.33;42.08;59.35;;
66463;Laerm;56827;52.178;4.500;2023-11-19T00:43:32;52.10;44.74;58.13;;
66463;Laerm;56827;52.178;4.500;2023-11-19T00:43:42;51.22;44.72;56.70;;
66463;Laerm;56827;52.178;4.500;2023-11-19T00:43:52;50.81;44.95;57.53;;
66463;Laerm;56827;52.178;4.500;2023-11-19T00:44:03;54.54;50.24;63.90;;
66463;Laerm;56827;52.178;4.500;2023-11-19T00:44:13;51.96;47.01;56.32;;
66463;Laerm;56827;52.178;4.500;2023-11-19T00:44:25;52.05;45.52;55.96;;
66463;Laerm;56827;52.178;4.500;2023-11-19T00:44:36;46.15;43.79;48.31;;
66463;Laerm;56827;52.178;4.500;2023-11-19T00:44:46;45.00;43.53;46.60;;
66463;Laerm;56827;52.178;4.500;2023-11-19T00:44:56;46.03;42.37;52.97;;
66463;Laerm;56827;52.178;4.500;2023-11-19T00:45:06;48.83;44.52;53.90;;
66463;Laerm;56827;52.178;4.500;2023-11-19T00:45:20;48.45;43.75;52.37;;
66463;Laerm;56827;52.178;4.500;2023-11-19T00:45:30;53.70;49.55;57.52;;
66463;Laerm;56827;52.178;4.500;2023-11-19T00:45:41;50.31;48.14;52.82;;
66463;Laerm;56827;52.178;4.500;2023-11-19T00:45:51;50.00;47.32;53.38;;
66463;Laerm;56827;52.178;4.500;2023-11-19T00:46:01;54.22;49.56;57.49;;
66463;Laerm;56827;52.178;4.500;2023-11-19T00:46:13;48.85;42.71;54.58;;
66463;Laerm;56827;52.178;4.500;2023-11-19T00:46:23;47.53;42.09;51.21;;
66463;Laerm;56827;52.178;4.500;2023-11-19T00:46:33;45.80;43.38;49.50;;
66463;Laerm;56827;52.178;4.500;2023-11-19T00:46:44;46.45;43.45;48.78;;
66463;Laerm;56827;52.178;4.500;2023-11-19T00:46:54;51.16;46.99;53.74;;
66463;Laerm;56827;52.178;4.500;2023-11-19T00:47:04;47.54;42.67;55.08;;
66463;Laerm;56827;52.178;4.500;2023-11-19T00:47:15;59.80;55.15;63.20;;
66463;Laerm;56827;52.178;4.500;2023-11-19T00:47:25;59.66;56.82;61.73;;
66463;Laerm;56827;52.178;4.500;2023-11-19T00:47:35;54.20;47.52;61.43;;
66463;Laerm;56827;52.178;4.500;2023-11-19T00:47:45;47.93;45.12;53.72;;
66463;Laerm;56827;52.178;4.500;2023-11-19T00:47:56;51.31;47.51;53.89;;
66463;Laerm;56827;52.178;4.500;2023-11-19T00:48:06;51.81;48.47;55.21;;
66463;Laerm;56827;52.178;4.500;2023-11-19T00:48:17;47.33;44.20;49.43;;
66463;Laerm;56827;52.178;4.500;2023-11-19T00:48:27;44.88;41.21;50.88;;
66463;Laerm;56827;52.178;4.500;2023-11-19T00:48:38;47.83;44.32;50.99;;
66463;Laerm;56827;52.178;4.500;2023-11-19T00:48:48;45.86;43.98;47.27;;
66463;Laerm;56827;52.178;4.500;2023-11-19T00:48:59;50.26;45.00;54.40;;
66463;Laerm;56827;52.178;4.500;2023-11-19T00:49:11;53.62;48.20;56.19;;
66463;Laerm;56827;52.178;4.500;2023-11-19T00:49:22;47.05;45.32;49.18;;
66463;Laerm;56827;52.178;4.500;2023-11-19T00:49:32;48.91;45.06;53.82;;
66463;Laerm;56827;52.178;4.500;2023-11-19T00:49:42;50.46;47.56;55.50;;
66463;Laerm;56827;52.178;4.500;2023-11-19T00:49:53;49.63;45.47;54.30;;
66463;Laerm;56827;52.178;4.500;2023-11-19T00:50:03;51.81;45.07;55.85;;
66463;Laerm;56827;52.178;4.500;2023-11-19T00:50:14;49.97;45.28;53.60;;
66463;Laerm;56827;52.178;4.500;2023-11-19T00:50:24;50.39;47.64;54.85;;
66463;Laerm;56827;52.178;4.500;2023-11-19T00:50:34;52.55;48.49;55.85;;
66463;Laerm;56827;52.178;4.500;2023-11-19T00:50:44;52.88;47.95;59.11;;
66463;Laerm;56827;52.178;4.500;2023-11-19T00:50:56;60.88;54.98;66.13;;
66463;Laerm;56827;52.178;4.500;2023-11-19T00:51:06;58.14;50.94;62.82;;
66463;Laerm;56827;52.178;4.500;2023-11-19T00:51:16;52.22;48.42;55.25;;
66463;Laerm;56827;52.178;4.500;2023-11-19T00:51:27;56.01;49.03;60.06;;
66463;Laerm;56827;52.178;4.500;2023-11-19T00:51:37;51.36;47.92;54.12;;
66463;Laerm;56827;52.178;4.500;2023-11-19T00:51:47;50.72;48.62;54.07;;
66463;Laerm;56827;52.178;4.500;2023-11-19T00:51:59;48.67;44.71;51.45;;
66463;Laerm;56827;52.178;4.500;2023-11-19T00:52:09;48.13;46.42;50.12;;
66463;Laerm;56827;52.178;4.500;2023-11-19T00:52:20;51.32;46.77;55.90;;
66463;Laerm;56827;52.178;4.500;2023-11-19T00:52:30;51.35;48.91;56.50;;
66463;Laerm;56827;52.178;4.500;2023-11-19T00:52:40;54.76;51.00;58.81;;
66463;Laerm;56827;52.178;4.500;2023-11-19T00:52:50;54.59;51.15;57.02;;
66463;Laerm;56827;52.178;4.500;2023-11-19T00:53:01;52.50;49.68;54.69;;
66463;Laerm;56827;52.178;4.500;2023-11-19T00:53:13;50.11;47.82;52.00;;
66463;Laerm;56827;52.178;4.500;2023-11-19T00:53:23;52.66;48.68;55.21;;
66463;Laerm;56827;52.178;4.500;2023-11-19T00:53:34;50.62;47.76;54.30;;
66463;Laerm;56827;52.178;4.500;2023-11-19T00:53:44;49.41;45.66;54.37;;
66463;Laerm;56827;52.178;4.500;2023-11-19T00:53:54;54.30;52.62;55.79;;
66463;Laerm;56827;52.178;4.500;2023-11-19T00:54:05;55.18;47.22;62.04;;
66463;Laerm;56827;52.178;4.500;2023-11-19T00:54:15;54.98;49.87;60.49;;
66463;Laerm;56827;52.178;4.500;2023-11-19T00:54:25;52.42;47.91;55.89;;
66463;Laerm;56827;52.178;4.500;2023-11-19T00:54:36;55.05;51.69;57.38;;
66463;Laerm;56827;52.178;4.500;2023-11-19T00:54:46;50.75;47.90;53.34;;
66463;Laerm;56827;52.178;4.500;2023-11-19T00:54:56;45.64;42.33;49.22;;
66463;Laerm;56827;52.178;4.500;2023-11-19T00:55:07;47.35;43.43;51.52;;
66463;Laerm;56827;52.178;4.500;2023-11-19T00:55:17;54.15;46.05;58.40;;
66463;Laerm;56827;52.178;4.500;2023-11-19T00:55:27;57.14;55.10;59.50;;
66463;Laerm;56827;52.178;4.500;2023-11-19T00:55:38;54.50;47.24;57.46;;
66463;Laerm;56827;52.178;4.500;2023-11-19T00:55:48;45.30;42.03;49.16;;
66463;Laerm;56827;52.178;4.500;2023-11-19T00:55:58;48.45;45.60;50.75;;
66463;Laerm;56827;52.178;4.500;2023-11-19T00:56:10;43.73;41.02;47.88;;
66463;Laerm;56827;52.178;4.500;2023-11-19T00:56:22;44.13;40.17;48.69;;
66463;Laerm;56827;52.178;4.500;2023-11-19T00:56:32;46.64;42.16;51.19;;
66463;Laerm;56827;52.178;4.500;2023-11-19T00:56:43;54.28;50.45;56.31;;
66463;Laerm;56827;52.178;4.500;2023-11-19T00:56:53;52.20;50.15;54.71;;
66463;Laerm;56827;52.178;4.500;2023-11-19T00:57:03;53.79;50.35;57.62;;
66463;Laerm;56827;52.178;4.500;2023-11-19T00:57:13;51.39;49.35;53.11;;
66463;Laerm;56827;52.178;4.500;2023-11-19T00:57:24;48.05;44.63;51.40;;
66463;Laerm;56827;52.178;4.500;2023-11-19T00:57:34;45.83;43.57;48.22;;
66463;Laerm;56827;52.178;4.500;2023-11-19T00:57:45;49.75;44.32;55.21;;
66463;Laerm;56827;52.178;4.500;2023-11-19T00:57:55;51.24;42.86;55.86;;
66463;Laerm;56827;52.178;4.500;2023-11-19T00:58:06;42.72;40.59;45.76;;
66463;Laerm;56827;52.178;4.500;2023-11-19T00:58:16;42.58;40.93;44.66;;
66463;Laerm;56827;52.178;4.500;2023-11-19T00:58:28;42.98;41.07;53.38;;
66463;Laerm;56827;52.178;4.500;2023-11-19T00:58:38;46.20;41.07;50.06;;
66463;Laerm;56827;52.178;4.500;2023-11-19T00:58:48;52.75;48.63;59.23;;
66463;Laerm;56827;52.178;4.500;2023-11-19T00:58:58;55.79;50.03;60.73;;
66463;Laerm;56827;52.178;4.500;2023-11-19T00:59:10;48.26;41.24;52.17;;
66463;Laerm;56827;52.178;4.500;2023-11-19T00:59:20;40.90;38.49;48.91;;
66463;Laerm;56827;52.178;4.500;2023-11-19T00:59:30;45.31;41.47;49.86;;
66463;Laerm;56827;52.178;4.500;2023-11-19T00:59:41;50.28;46.49;53.98;;